| time (UTC) | temp C | wind direction | speed KPH | gust KPH | rain 1hr cm | rain 24hr cm | rain mn cm | humidity % | barometer mb |
| 20260504110604 | 19 | 346 | 6.4 | 24.1 | 0.00 | 0.00 | 0.00 | 30 | 1015.8 |
| 20260504110404 | 19 | 333 | 6.4 | 24.1 | 0.00 | 0.00 | 0.00 | 31 | 1015.6 |
| 20260504110204 | 18 | 324 | 6.4 | 24.1 | 0.00 | 0.00 | 0.00 | 31 | 1015.5 |
| 20260504100604 | 18 | 345 | 4.8 | 16.1 | 0.00 | 0.00 | 0.00 | 32 | 1016.0 |
| 20260504100405 | 19 | 309 | 4.8 | 16.1 | 0.00 | 0.00 | 0.00 | 32 | 1016.3 |
| 20260504100204 | 19 | 330 | 4.8 | 19.3 | 0.00 | 0.00 | 0.00 | 32 | 1016.0 |
| 20260504082004 | 17 | 281 | 3.2 | 12.9 | 0.00 | 0.00 | 0.00 | 42 | 1016.1 |
| 20260504081804 | 17 | 272 | 3.2 | 12.9 | 0.00 | 0.00 | 0.00 | 41 | 1016.3 |
| 20260504081405 | 17 | 268 | 1.6 | 12.9 | 0.00 | 0.00 | 0.00 | 43 | 1016.1 |
| 20260504081205 | 17 | 278 | 3.2 | 17.7 | 0.00 | 0.00 | 0.00 | 44 | 1016.2 |
| 20260504080805 | 17 | 270 | 4.8 | 17.7 | 0.00 | 0.00 | 0.00 | 44 | 1016.5 |
| 20260504080604 | 17 | 259 | 4.8 | 17.7 | 0.00 | 0.00 | 0.00 | 45 | 1016.2 |
| 20260504080404 | 16 | 258 | 4.8 | 17.7 | 0.00 | 0.00 | 0.00 | 45 | 1016.2 |
| 20260504080204 | 17 | 262 | 4.8 | 14.5 | 0.00 | 0.00 | 0.00 | 46 | 1016.2 |
| 20260504070404 | 17 | 218 | 1.6 | 6.4 | 0.00 | 0.00 | 0.00 | 48 | 1015.9 |
| 20260504070205 | 17 | 209 | 1.6 | 6.4 | 0.00 | 0.00 | 0.00 | 50 | 1015.6 |
| 20260504060205 | 14 | 247 | 3.2 | 12.9 | 0.00 | 0.03 | 0.00 | 58 | 1015.5 |
| 20260504050605 | 11 | 222 | 1.6 | 6.4 | 0.00 | 0.03 | 0.00 | 83 | 1015.3 |
| 20260504050404 | 11 | 217 | 0.0 | 6.4 | 0.00 | 0.03 | 0.00 | 83 | 1015.4 |
| 20260504050204 | 10 | 228 | 0.0 | 6.4 | 0.00 | 0.03 | 0.00 | 83 | 1015.5 |
| 20260504050004 | 10 | 212 | 0.0 | 6.4 | 0.00 | 0.03 | 0.00 | 84 | 1015.3 |
| 20260504045804 | 10 | 181 | 0.0 | 3.2 | 0.00 | 0.03 | 0.00 | 84 | 1015.4 |
| 20260504045604 | 10 | 181 | 0.0 | 3.2 | 0.00 | 0.05 | 0.00 | 84 | 1015.4 |
| 20260504045404 | 10 | 181 | 0.0 | 3.2 | 0.00 | 0.05 | 0.00 | 85 | 1015.3 |
| 20260504045004 | 10 | 181 | 0.0 | 3.2 | 0.00 | 0.05 | 0.00 | 85 | 1015.0 |
| 20260504044804 | 9 | 181 | 0.0 | 1.6 | 0.00 | 0.05 | 0.00 | 85 | 1015.4 |
| 20260504044604 | 9 | 181 | 0.0 | 3.2 | 0.00 | 0.05 | 0.00 | 85 | 1015.2 |
| 20260504044404 | 9 | 205 | 0.0 | 3.2 | 0.00 | 0.05 | 0.00 | 85 | 1015.3 |
| 20260504044205 | 9 | 222 | 0.0 | 3.2 | 0.00 | 0.10 | 0.00 | 85 | 1015.2 |
| 20260504044005 | 9 | 222 | 0.0 | 3.2 | 0.00 | 0.10 | 0.00 | 85 | 1015.2 |
| 20260504043805 | 9 | 219 | 0.0 | 3.2 | 0.00 | 0.10 | 0.00 | 85 | 1015.1 |
| 20260504043604 | 8 | 209 | 0.0 | 3.2 | 0.00 | 0.13 | 0.00 | 85 | 1015.2 |
| 20260504043404 | 8 | 196 | 0.0 | 3.2 | 0.00 | 0.13 | 0.00 | 85 | 1015.3 |
| 20260504043204 | 8 | 181 | 0.0 | 3.2 | 0.00 | 0.13 | 0.00 | 85 | 1015.1 |
| 20260504043004 | 8 | 181 | 0.0 | 3.2 | 0.00 | 0.13 | 0.00 | 85 | 1015.1 |
| 20260504042804 | 8 | 181 | 0.0 | 3.2 | 0.00 | 0.13 | 0.00 | 85 | 1015.1 |
| 20260504042405 | 8 | 236 | 0.0 | 3.2 | 0.00 | 0.15 | 0.00 | 85 | 1015.1 |
| 20260504042204 | 8 | 214 | 0.0 | 3.2 | 0.00 | 0.15 | 0.00 | 85 | 1015.1 |
| 20260504042004 | 8 | 210 | 0.0 | 3.2 | 0.00 | 0.15 | 0.00 | 85 | 1015.0 |
| 20260504041805 | 8 | 204 | 0.0 | 3.2 | 0.00 | 0.15 | 0.00 | 85 | 1015.2 |
| 20260504041605 | 8 | 202 | 0.0 | 3.2 | 0.00 | 0.15 | 0.00 | 85 | 1015.3 |
| 20260504041404 | 8 | 181 | 0.0 | 3.2 | 0.00 | 0.18 | 0.00 | 85 | 1015.1 |
| 20260504041204 | 8 | 176 | 0.0 | 4.8 | 0.00 | 0.18 | 0.00 | 85 | 1015.3 |
| 20260504041004 | 8 | 190 | 0.0 | 4.8 | 0.00 | 0.18 | 0.00 | 85 | 1015.1 |
| 20260504040805 | 8 | 195 | 0.0 | 4.8 | 0.00 | 0.18 | 0.00 | 85 | 1014.9 |
| 20260504040604 | 8 | 197 | 1.6 | 4.8 | 0.00 | 0.18 | 0.00 | 85 | 1015.2 |
| 20260504040404 | 8 | 204 | 1.6 | 4.8 | 0.00 | 0.18 | 0.00 | 85 | 1015.0 |
| 20260504040004 | 8 | 189 | 1.6 | 4.8 | 0.00 | 0.18 | 0.00 | 85 | 1015.0 |
| 20260504035804 | 8 | 164 | 1.6 | 6.4 | 0.00 | 0.18 | 0.00 | 85 | 1014.8 |
| 20260504035605 | 8 | 146 | 1.6 | 6.4 | 0.00 | 0.18 | 0.00 | 85 | 1014.9 |
| 20260504035204 | 8 | 135 | 1.6 | 6.4 | 0.00 | 0.18 | 0.00 | 86 | 1014.8 |
| 20260504035005 | 8 | 135 | 1.6 | 6.4 | 0.00 | 0.18 | 0.00 | 86 | 1014.7 |
| 20260504034805 | 8 | 135 | 1.6 | 4.8 | 0.00 | 0.18 | 0.00 | 86 | 1014.8 |
| 20260504034204 | 7 | 135 | 0.0 | 3.2 | 0.00 | 0.18 | 0.00 | 86 | 1014.6 |
| 20260504034004 | 7 | 142 | 0.0 | 3.2 | 0.00 | 0.18 | 0.00 | 85 | 1014.6 |
| 20260504033805 | 7 | 142 | 0.0 | 3.2 | 0.00 | 0.18 | 0.00 | 85 | 1014.7 |
| 20260504033604 | 7 | 142 | 0.0 | 3.2 | 0.00 | 0.18 | 0.00 | 85 | 1014.8 |
| 20260504033404 | 7 | 143 | 0.0 | 3.2 | 0.00 | 0.18 | 0.00 | 85 | 1014.5 |
| 20260504033205 | 7 | 181 | 0.0 | 1.6 | 0.00 | 0.18 | 0.00 | 84 | 1014.7 |
| 20260504033004 | 7 | 181 | 0.0 | 3.2 | 0.00 | 0.18 | 0.00 | 84 | 1014.8 |
| 20260504032804 | 7 | 181 | 0.0 | 3.2 | 0.00 | 0.18 | 0.00 | 83 | 1014.7 |
| 20260504032604 | 7 | 170 | 0.0 | 3.2 | 0.00 | 0.18 | 0.00 | 83 | 1014.7 |
| 20260504032204 | 7 | 166 | 0.0 | 3.2 | 0.00 | 0.18 | 0.00 | 83 | 1014.7 |
| 20260504032004 | 7 | 159 | 0.0 | 4.8 | 0.00 | 0.18 | 0.00 | 83 | 1014.8 |
| 20260504031804 | 7 | 155 | 0.0 | 4.8 | 0.00 | 0.18 | 0.00 | 83 | 1014.7 |
| 20260504031604 | 7 | 148 | 0.0 | 4.8 | 0.00 | 0.18 | 0.00 | 83 | 1014.8 |
| 20260504031404 | 7 | 143 | 0.0 | 4.8 | 0.00 | 0.18 | 0.00 | 84 | 1014.8 |
| 20260504031204 | 8 | 144 | 1.6 | 4.8 | 0.00 | 0.18 | 0.00 | 84 | 1014.7 |
| 20260504031004 | 7 | 139 | 0.0 | 4.8 | 0.00 | 0.18 | 0.00 | 84 | 1014.8 |
| 20260504030604 | 7 | 138 | 0.0 | 4.8 | 0.00 | 0.18 | 0.00 | 84 | 1014.8 |
| 20260504030405 | 7 | 139 | 0.0 | 3.2 | 0.00 | 0.18 | 0.00 | 83 | 1014.7 |
| 20260504030005 | 7 | 135 | 0.0 | 3.2 | 0.00 | 0.18 | 0.00 | 82 | 1014.9 |
| 20260504025605 | 7 | 135 | 0.0 | 3.2 | 0.00 | 0.18 | 0.00 | 82 | 1014.8 |
| 20260504025205 | 7 | 135 | 0.0 | 3.2 | 0.00 | 0.18 | 0.00 | 81 | 1014.5 |
| 20260504025004 | 7 | 135 | 0.0 | 4.8 | 0.00 | 0.18 | 0.00 | 81 | 1014.7 |
| 20260504024604 | 7 | 137 | 0.0 | 4.8 | 0.00 | 0.18 | 0.00 | 81 | 1014.8 |
| 20260504024405 | 7 | 137 | 0.0 | 4.8 | 0.00 | 0.18 | 0.00 | 81 | 1014.8 |
| 20260504024204 | 7 | 137 | 0.0 | 4.8 | 0.00 | 0.18 | 0.00 | 81 | 1014.6 |
| 20260504024004 | 7 | 137 | 0.0 | 6.4 | 0.00 | 0.18 | 0.00 | 81 | 1014.7 |
| 20260504023804 | 7 | 141 | 0.0 | 6.4 | 0.00 | 0.18 | 0.00 | 81 | 1014.8 |
| 20260504023404 | 8 | 133 | 0.0 | 6.4 | 0.00 | 0.18 | 0.00 | 81 | 1014.6 |
| 20260504023005 | 8 | 144 | 0.0 | 4.8 | 0.00 | 0.18 | 0.00 | 80 | 1014.8 |
| 20260504022804 | 8 | 133 | 0.0 | 4.8 | 0.00 | 0.18 | 0.00 | 81 | 1014.8 |
| 20260504022605 | 8 | 112 | 0.0 | 4.8 | 0.00 | 0.18 | 0.00 | 81 | 1014.7 |
| 20260504022204 | 8 | 80 | 0.0 | 6.4 | 0.00 | 0.18 | 0.00 | 81 | 1014.7 |
| 20260504021804 | 8 | 93 | 1.6 | 6.4 | 0.00 | 0.18 | 0.00 | 81 | 1014.8 |
| 20260504021604 | 8 | 116 | 1.6 | 6.4 | 0.00 | 0.18 | 0.00 | 80 | 1014.7 |
| 20260504021404 | 8 | 128 | 1.6 | 6.4 | 0.00 | 0.18 | 0.00 | 80 | 1014.6 |
| 20260504021005 | 8 | 166 | 0.0 | 4.8 | 0.00 | 0.18 | 0.00 | 80 | 1014.8 |
| 20260504020804 | 8 | 176 | 0.0 | 3.2 | 0.00 | 0.18 | 0.00 | 79 | 1014.7 |
| 20260504020604 | 8 | 176 | 0.0 | 3.2 | 0.00 | 0.18 | 0.00 | 79 | 1014.9 |
| 20260504020404 | 8 | 169 | 0.0 | 3.2 | 0.00 | 0.18 | 0.00 | 79 | 1015.0 |
| 20260504020004 | 8 | 158 | 0.0 | 3.2 | 0.00 | 0.18 | 0.00 | 79 | 1014.8 |
| 20260504015804 | 8 | 154 | 0.0 | 3.2 | 0.00 | 0.18 | 0.00 | 79 | 1014.9 |
| 20260504015604 | 8 | 145 | 0.0 | 3.2 | 0.00 | 0.18 | 0.00 | 79 | 1015.0 |
| 20260504015404 | 8 | 144 | 0.0 | 3.2 | 0.00 | 0.18 | 0.00 | 79 | 1014.7 |
| 20260504015004 | 8 | 158 | 0.0 | 4.8 | 0.00 | 0.18 | 0.00 | 79 | 1014.9 |
| 20260504014804 | 8 | 158 | 0.0 | 4.8 | 0.00 | 0.18 | 0.00 | 79 | 1014.9 |
| 20260504014404 | 8 | 148 | 1.6 | 9.7 | 0.00 | 0.18 | 0.00 | 79 | 1014.8 |
| 20260504014204 | 8 | 119 | 1.6 | 9.7 | 0.00 | 0.18 | 0.00 | 79 | 1014.8 |
| 20260504014004 | 8 | 113 | 1.6 | 9.7 | 0.00 | 0.18 | 0.00 | 79 | 1014.9 |
| 20260504013805 | 8 | 120 | 1.6 | 9.7 | 0.00 | 0.18 | 0.00 | 79 | 1014.7 |
| 20260504013604 | 8 | 117 | 1.6 | 9.7 | 0.00 | 0.18 | 0.00 | 79 | 1015.0 |
| 20260504013405 | 8 | 113 | 1.6 | 9.7 | 0.00 | 0.18 | 0.00 | 79 | 1014.8 |
| 20260504013205 | 8 | 140 | 1.6 | 8.0 | 0.00 | 0.18 | 0.00 | 78 | 1014.8 |
| 20260504013004 | 8 | 142 | 1.6 | 8.0 | 0.00 | 0.18 | 0.00 | 79 | 1014.8 |
| 20260504012804 | 8 | 133 | 1.6 | 8.0 | 0.00 | 0.18 | 0.00 | 79 | 1014.7 |
| 20260504012605 | 8 | 126 | 1.6 | 8.0 | 0.00 | 0.18 | 0.00 | 79 | 1014.8 |
| 20260504012404 | 8 | 103 | 1.6 | 6.4 | 0.00 | 0.18 | 0.00 | 78 | 1014.7 |
| 20260504012205 | 8 | 117 | 1.6 | 6.4 | 0.00 | 0.18 | 0.00 | 78 | 1014.6 |
| 20260504012004 | 8 | 115 | 1.6 | 6.4 | 0.00 | 0.18 | 0.00 | 79 | 1014.6 |
| 20260504011605 | 8 | 95 | 0.0 | 6.4 | 0.00 | 0.18 | 0.00 | 78 | 1014.7 |
| 20260504011404 | 8 | 160 | 0.0 | 3.2 | 0.00 | 0.18 | 0.00 | 77 | 1014.9 |
| 20260504011205 | 8 | 181 | 0.0 | 3.2 | 0.00 | 0.18 | 0.00 | 77 | 1014.8 |
| 20260504011004 | 8 | 181 | 0.0 | 1.6 | 0.00 | 0.18 | 0.00 | 77 | 1014.8 |
| 20260504010805 | 8 | 181 | 0.0 | 1.6 | 0.00 | 0.18 | 0.00 | 78 | 1014.8 |
| 20260504010604 | 8 | 181 | 0.0 | 1.6 | 0.00 | 0.18 | 0.00 | 76 | 1014.7 |
| 20260504010404 | 8 | 175 | 0.0 | 3.2 | 0.00 | 0.18 | 0.00 | 76 | 1014.6 |
| 20260504010004 | 8 | 164 | 0.0 | 3.2 | 0.00 | 0.18 | 0.00 | 76 | 1014.8 |
| 20260504005804 | 8 | 158 | 0.0 | 3.2 | 0.00 | 0.18 | 0.00 | 76 | 1014.6 |
| 20260504005405 | 8 | 158 | 0.0 | 3.2 | 0.00 | 0.18 | 0.00 | 76 | 1014.7 |
| 20260504005004 | 8 | 156 | 0.0 | 3.2 | 0.00 | 0.18 | 0.00 | 77 | 1014.8 |
| 20260504004805 | 8 | 154 | 0.0 | 3.2 | 0.00 | 0.18 | 0.00 | 76 | 1014.7 |
| 20260504004604 | 8 | 153 | 0.0 | 3.2 | 0.00 | 0.18 | 0.00 | 76 | 1014.8 |
| 20260504004404 | 8 | 148 | 0.0 | 4.8 | 0.00 | 0.18 | 0.00 | 76 | 1014.9 |
| 20260504004204 | 8 | 146 | 0.0 | 4.8 | 0.00 | 0.18 | 0.00 | 76 | 1014.8 |
| 20260504004004 | 8 | 148 | 0.0 | 4.8 | 0.00 | 0.18 | 0.00 | 76 | 1014.8 |
| 20260504003604 | 8 | 154 | 0.0 | 4.8 | 0.00 | 0.18 | 0.00 | 76 | 1014.7 |
| 20260504003404 | 8 | 157 | 0.0 | 4.8 | 0.00 | 0.18 | 0.00 | 76 | 1014.5 |
| 20260504003204 | 8 | 175 | 0.0 | 4.8 | 0.00 | 0.18 | 0.00 | 76 | 1014.8 |
| 20260504003004 | 8 | 181 | 0.0 | 4.8 | 0.00 | 0.18 | 0.00 | 76 | 1014.7 |
| 20260504002804 | 8 | 181 | 0.0 | 4.8 | 0.00 | 0.18 | 0.00 | 76 | 1014.5 |
| 20260504002604 | 8 | 182 | 0.0 | 4.8 | 0.00 | 0.18 | 0.00 | 76 | 1014.7 |
| 20260504002404 | 8 | 186 | 0.0 | 4.8 | 0.00 | 0.18 | 0.00 | 77 | 1014.6 |
| 20260504002204 | 8 | 172 | 0.0 | 6.4 | 0.00 | 0.18 | 0.00 | 76 | 1014.4 |
| 20260504002004 | 8 | 159 | 1.6 | 6.4 | 0.00 | 0.18 | 0.00 | 76 | 1014.4 |
| 20260504001404 | 8 | 166 | 1.6 | 6.4 | 0.00 | 0.18 | 0.00 | 77 | 1014.5 |
| 20260504001204 | 8 | 171 | 1.6 | 6.4 | 0.00 | 0.18 | 0.00 | 78 | 1014.7 |
| 20260504001004 | 8 | 182 | 0.0 | 6.4 | 0.00 | 0.18 | 0.00 | 78 | 1014.6 |
| 20260504000804 | 8 | 181 | 0.0 | 3.2 | 0.00 | 0.18 | 0.00 | 77 | 1014.6 |
| 20260504000604 | 8 | 181 | 0.0 | 3.2 | 0.00 | 0.18 | 0.00 | 76 | 1014.7 |
| 20260504000204 | 8 | 172 | 0.0 | 3.2 | 0.00 | 0.18 | 0.00 | 76 | 1014.7 |
| 20260504000004 | 8 | 163 | 0.0 | 3.2 | 0.00 | 0.18 | 0.00 | 76 | 1014.5 |
| 20260503235804 | 8 | 142 | 0.0 | 1.6 | 0.00 | 0.18 | 0.00 | 76 | 1014.8 |
| 20260503235604 | 8 | 179 | 0.0 | 3.2 | 0.00 | 0.18 | 0.00 | 76 | 1014.7 |
| 20260503235404 | 8 | 221 | 0.0 | 3.2 | 0.00 | 0.18 | 0.00 | 76 | 1014.7 |
| 20260503235204 | 8 | 222 | 0.0 | 3.2 | 0.00 | 0.18 | 0.00 | 75 | 1014.8 |
| 20260503235004 | 8 | 197 | 0.0 | 3.2 | 0.00 | 0.18 | 0.00 | 75 | 1014.7 |
| 20260503234804 | 8 | 200 | 0.0 | 3.2 | 0.00 | 0.18 | 0.00 | 75 | 1014.7 |
| 20260503234604 | 8 | 203 | 0.0 | 4.8 | 0.00 | 0.18 | 0.00 | 75 | 1014.6 |
| 20260503233604 | 8 | 175 | 0.0 | 3.2 | 0.00 | 0.18 | 0.00 | 75 | 1014.6 |
| 20260503233204 | 8 | 177 | 0.0 | 4.8 | 0.00 | 0.18 | 0.00 | 75 | 1014.7 |
| 20260503233004 | 8 | 177 | 1.6 | 4.8 | 0.00 | 0.18 | 0.00 | 75 | 1014.7 |
| 20260503232805 | 8 | 177 | 1.6 | 4.8 | 0.00 | 0.18 | 0.00 | 75 | 1014.7 |
| 20260503232604 | 8 | 177 | 1.6 | 4.8 | 0.00 | 0.18 | 0.00 | 75 | 1014.6 |
| 20260503232204 | 8 | 170 | 0.0 | 3.2 | 0.00 | 0.18 | 0.00 | 75 | 1014.7 |
| 20260503232004 | 8 | 165 | 0.0 | 3.2 | 0.00 | 0.18 | 0.00 | 74 | 1014.5 |
| 20260503231605 | 8 | 166 | 0.0 | 3.2 | 0.00 | 0.18 | 0.00 | 73 | 1015.0 |
| 20260503231404 | 8 | 176 | 0.0 | 3.2 | 0.00 | 0.18 | 0.00 | 73 | 1014.7 |
| 20260503231204 | 8 | 181 | 0.0 | 3.2 | 0.00 | 0.18 | 0.00 | 72 | 1014.7 |
| 20260503231005 | 9 | 181 | 0.0 | 3.2 | 0.00 | 0.18 | 0.00 | 72 | 1014.7 |
| 20260503230604 | 9 | 168 | 1.6 | 4.8 | 0.00 | 0.18 | 0.00 | 72 | 1014.8 |
| 20260503230404 | 9 | 167 | 1.6 | 4.8 | 0.00 | 0.18 | 0.00 | 72 | 1014.7 |
| 20260503230204 | 9 | 165 | 1.6 | 4.8 | 0.00 | 0.18 | 0.00 | 72 | 1014.6 |
| 20260503230004 | 9 | 159 | 1.6 | 4.8 | 0.00 | 0.18 | 0.00 | 72 | 1014.6 |
| 20260503225804 | 9 | 149 | 0.0 | 4.8 | 0.00 | 0.18 | 0.00 | 72 | 1014.5 |
| 20260503225604 | 9 | 163 | 0.0 | 3.2 | 0.00 | 0.18 | 0.00 | 71 | 1014.7 |
| 20260503225404 | 9 | 66 | 0.0 | 4.8 | 0.00 | 0.18 | 0.00 | 71 | 1014.6 |
| 20260503225205 | 9 | 18 | 0.0 | 6.4 | 0.00 | 0.18 | 0.00 | 71 | 1014.7 |
| 20260503225004 | 10 | 2 | 0.0 | 6.4 | 0.00 | 0.18 | 0.00 | 71 | 1014.6 |
| 20260503224805 | 9 | 16 | 1.6 | 6.4 | 0.00 | 0.18 | 0.00 | 71 | 1014.8 |
| 20260503224605 | 10 | 12 | 1.6 | 6.4 | 0.00 | 0.18 | 0.00 | 71 | 1014.4 |
| 20260503224404 | 10 | 7 | 1.6 | 6.4 | 0.00 | 0.18 | 0.00 | 71 | 1014.7 |
| 20260503224204 | 10 | 17 | 1.6 | 6.4 | 0.00 | 0.18 | 0.00 | 71 | 1014.5 |
| 20260503224005 | 10 | 131 | 1.6 | 6.4 | 0.00 | 0.18 | 0.00 | 71 | 1014.4 |
| 20260503223805 | 10 | 207 | 0.0 | 6.4 | 0.00 | 0.18 | 0.00 | 71 | 1014.5 |
| 20260503223604 | 10 | 200 | 0.0 | 3.2 | 0.00 | 0.20 | 0.00 | 70 | 1014.6 |
| 20260503223404 | 10 | 181 | 0.0 | 3.2 | 0.00 | 0.20 | 0.00 | 70 | 1014.5 |
| 20260503223204 | 10 | 181 | 0.0 | 1.6 | 0.00 | 0.20 | 0.00 | 69 | 1014.6 |
| 20260503223004 | 10 | 212 | 0.0 | 6.4 | 0.00 | 0.20 | 0.00 | 69 | 1014.7 |
| 20260503222604 | 10 | 253 | 1.6 | 6.4 | 0.00 | 0.20 | 0.00 | 69 | 1014.8 |
| 20260503222205 | 10 | 254 | 3.2 | 8.0 | 0.00 | 0.20 | 0.00 | 69 | 1014.7 |
| 20260503222005 | 10 | 260 | 3.2 | 8.0 | 0.00 | 0.20 | 0.00 | 70 | 1014.7 |
| 20260503221804 | 10 | 261 | 3.2 | 8.0 | 0.00 | 0.20 | 0.00 | 70 | 1014.7 |
| 20260503221604 | 10 | 258 | 1.6 | 8.0 | 0.00 | 0.20 | 0.00 | 70 | 1014.7 |
| 20260503221404 | 10 | 262 | 1.6 | 8.0 | 0.00 | 0.20 | 0.00 | 70 | 1014.9 |
| 20260503221005 | 10 | 217 | 0.0 | 6.4 | 0.00 | 0.20 | 0.00 | 70 | 1015.0 |
| 20260503220804 | 10 | 181 | 0.0 | 3.2 | 0.00 | 0.20 | 0.00 | 70 | 1014.8 |
| 20260503220604 | 10 | 181 | 0.0 | 6.4 | 0.00 | 0.20 | 0.00 | 70 | 1014.8 |
| 20260503220405 | 10 | 203 | 0.0 | 6.4 | 0.00 | 0.20 | 0.00 | 70 | 1014.8 |
| 20260503220204 | 10 | 245 | 1.6 | 8.0 | 0.00 | 0.20 | 0.00 | 70 | 1014.8 |
| 20260503220004 | 10 | 256 | 1.6 | 8.0 | 0.00 | 0.20 | 0.00 | 70 | 1014.8 |
| 20260503215804 | 10 | 268 | 1.6 | 8.0 | 0.00 | 0.20 | 0.00 | 70 | 1014.6 |
| 20260503215605 | 10 | 273 | 1.6 | 8.0 | 0.00 | 0.20 | 0.00 | 70 | 1014.6 |
| 20260503215404 | 10 | 272 | 3.2 | 8.0 | 0.00 | 0.20 | 0.00 | 70 | 1014.7 |
| 20260503215205 | 10 | 259 | 3.2 | 8.0 | 0.00 | 0.20 | 0.00 | 70 | 1015.0 |
| 20260503215004 | 10 | 255 | 3.2 | 8.0 | 0.00 | 0.20 | 0.00 | 70 | 1014.8 |
| 20260503214805 | 10 | 252 | 3.2 | 8.0 | 0.00 | 0.20 | 0.00 | 71 | 1014.8 |
| 20260503214604 | 10 | 250 | 3.2 | 8.0 | 0.00 | 0.20 | 0.00 | 71 | 1014.6 |
| 20260503214404 | 10 | 247 | 1.6 | 6.4 | 0.00 | 0.20 | 0.00 | 71 | 1014.7 |
| 20260503214205 | 10 | 242 | 1.6 | 6.4 | 0.00 | 0.20 | 0.00 | 71 | 1015.0 |
| 20260503214004 | 10 | 244 | 1.6 | 6.4 | 0.00 | 0.20 | 0.00 | 72 | 1014.9 |
| 20260503213404 | 10 | 237 | 1.6 | 4.8 | 0.00 | 0.20 | 0.00 | 71 | 1015.0 |
| 20260503213204 | 10 | 250 | 1.6 | 6.4 | 0.00 | 0.20 | 0.00 | 70 | 1014.9 |
| 20260503212804 | 10 | 232 | 1.6 | 6.4 | 0.00 | 0.20 | 0.00 | 69 | 1014.8 |
| 20260503212605 | 10 | 216 | 1.6 | 9.7 | 0.00 | 0.20 | 0.00 | 69 | 1014.8 |
| 20260503212404 | 10 | 204 | 1.6 | 9.7 | 0.00 | 0.20 | 0.00 | 69 | 1014.7 |
| 20260503212204 | 10 | 201 | 3.2 | 9.7 | 0.00 | 0.20 | 0.00 | 69 | 1014.7 |
| 20260503212004 | 10 | 208 | 3.2 | 9.7 | 0.00 | 0.20 | 0.00 | 69 | 1014.8 |
| 20260503211804 | 10 | 208 | 3.2 | 9.7 | 0.00 | 0.20 | 0.00 | 69 | 1014.9 |
| 20260503211604 | 10 | 208 | 3.2 | 8.0 | 0.00 | 0.20 | 0.00 | 69 | 1014.6 |
| 20260503211405 | 10 | 221 | 3.2 | 8.0 | 0.00 | 0.20 | 0.00 | 68 | 1014.8 |
| 20260503211204 | 10 | 229 | 3.2 | 8.0 | 0.00 | 0.20 | 0.00 | 68 | 1014.7 |
| 20260503210805 | 10 | 239 | 1.6 | 6.4 | 0.00 | 0.20 | 0.00 | 68 | 1014.6 |
| 20260503210605 | 10 | 266 | 1.6 | 8.0 | 0.00 | 0.20 | 0.00 | 68 | 1014.5 |
| 20260503210204 | 10 | 258 | 1.6 | 8.0 | 0.00 | 0.20 | 0.00 | 68 | 1014.9 |
| 20260503205804 | 10 | 248 | 1.6 | 8.0 | 0.00 | 0.20 | 0.20 | 68 | 1014.8 |
| 20260503205604 | 10 | 240 | 1.6 | 6.4 | 0.00 | 0.20 | 0.20 | 67 | 1014.8 |
| 20260503205404 | 10 | 242 | 1.6 | 8.0 | 0.00 | 0.20 | 0.20 | 67 | 1014.6 |
| 20260503205204 | 10 | 250 | 1.6 | 8.0 | 0.00 | 0.20 | 0.20 | 67 | 1014.8 |
| 20260503205004 | 10 | 260 | 1.6 | 8.0 | 0.00 | 0.20 | 0.20 | 67 | 1014.9 |
| 20260503204804 | 10 | 256 | 1.6 | 8.0 | 0.00 | 0.20 | 0.20 | 66 | 1014.7 |
| 20260503204605 | 10 | 255 | 3.2 | 8.0 | 0.00 | 0.20 | 0.20 | 66 | 1014.9 |
| 20260503204404 | 11 | 252 | 3.2 | 9.7 | 0.00 | 0.20 | 0.20 | 66 | 1014.7 |
| 20260503204204 | 10 | 247 | 3.2 | 9.7 | 0.00 | 0.20 | 0.20 | 66 | 1014.7 |
| 20260503204004 | 11 | 243 | 3.2 | 9.7 | 0.00 | 0.20 | 0.20 | 66 | 1014.7 |
| 20260503203804 | 11 | 246 | 3.2 | 9.7 | 0.00 | 0.20 | 0.20 | 66 | 1014.7 |
| 20260503203604 | 10 | 243 | 3.2 | 9.7 | 0.00 | 0.20 | 0.20 | 66 | 1014.8 |
| 20260503203404 | 11 | 242 | 3.2 | 9.7 | 0.00 | 0.20 | 0.20 | 66 | 1014.3 |
| 20260503203004 | 11 | 250 | 3.2 | 9.7 | 0.00 | 0.20 | 0.20 | 66 | 1014.7 |
| 20260503202804 | 10 | 245 | 3.2 | 11.3 | 0.00 | 0.20 | 0.20 | 66 | 1014.8 |
| 20260503202604 | 10 | 246 | 3.2 | 11.3 | 0.00 | 0.20 | 0.20 | 66 | 1014.8 |
| 20260503202404 | 11 | 249 | 3.2 | 11.3 | 0.00 | 0.20 | 0.20 | 66 | 1014.8 |
| 20260503202204 | 10 | 245 | 3.2 | 11.3 | 0.00 | 0.20 | 0.20 | 66 | 1014.6 |
| 20260503202005 | 11 | 249 | 3.2 | 11.3 | 0.00 | 0.20 | 0.20 | 66 | 1014.9 |
| 20260503201804 | 11 | 253 | 1.6 | 11.3 | 0.00 | 0.20 | 0.20 | 66 | 1014.5 |
| 20260503201604 | 11 | 250 | 3.2 | 11.3 | 0.00 | 0.20 | 0.20 | 66 | 1014.8 |
| 20260503201405 | 11 | 259 | 3.2 | 11.3 | 0.00 | 0.20 | 0.20 | 66 | 1014.8 |
| 20260503201205 | 11 | 274 | 3.2 | 12.9 | 0.00 | 0.20 | 0.20 | 66 | 1014.8 |
| 20260503201004 | 11 | 258 | 3.2 | 12.9 | 0.00 | 0.20 | 0.20 | 66 | 1014.7 |
| 20260503200804 | 11 | 255 | 3.2 | 12.9 | 0.00 | 0.20 | 0.20 | 66 | 1014.9 |
| 20260503200605 | 11 | 273 | 3.2 | 12.9 | 0.00 | 0.20 | 0.20 | 66 | 1014.8 |
| 20260503200404 | 11 | 274 | 4.8 | 12.9 | 0.00 | 0.20 | 0.20 | 66 | 1014.8 |
| 20260503200204 | 11 | 269 | 4.8 | 12.9 | 0.00 | 0.20 | 0.20 | 66 | 1014.8 |
| 20260503200004 | 11 | 273 | 4.8 | 12.9 | 0.00 | 0.20 | 0.20 | 65 | 1014.4 |
| 20260503195804 | 11 | 274 | 4.8 | 12.9 | 0.00 | 0.20 | 0.20 | 66 | 1014.6 |
| 20260503195604 | 11 | 268 | 3.2 | 12.9 | 0.00 | 0.20 | 0.20 | 66 | 1014.7 |
| 20260503195404 | 11 | 270 | 3.2 | 12.9 | 0.00 | 0.20 | 0.20 | 66 | 1014.6 |
| 20260503195005 | 11 | 266 | 1.6 | 11.3 | 0.00 | 0.20 | 0.20 | 66 | 1014.5 |
| 20260503194804 | 10 | 271 | 1.6 | 11.3 | 0.00 | 0.20 | 0.20 | 65 | 1014.7 |
| 20260503194404 | 11 | 277 | 3.2 | 11.3 | 0.00 | 0.20 | 0.20 | 66 | 1014.7 |
| 20260503194204 | 10 | 270 | 1.6 | 11.3 | 0.00 | 0.20 | 0.20 | 65 | 1014.5 |
| 20260503193604 | 11 | 257 | 1.6 | 6.4 | 0.00 | 0.20 | 0.20 | 65 | 1014.7 |
| 20260503193405 | 11 | 253 | 1.6 | 8.0 | 0.00 | 0.20 | 0.20 | 65 | 1014.8 |
| 20260503193204 | 11 | 249 | 3.2 | 8.0 | 0.00 | 0.20 | 0.20 | 65 | 1014.7 |
| 20260503193004 | 11 | 253 | 3.2 | 8.0 | 0.00 | 0.20 | 0.20 | 65 | 1014.6 |
| 20260503192804 | 11 | 255 | 4.8 | 8.0 | 0.00 | 0.20 | 0.20 | 65 | 1014.7 |
| 20260503192604 | 11 | 256 | 4.8 | 11.3 | 0.00 | 0.20 | 0.20 | 65 | 1014.6 |
| 20260503192405 | 11 | 261 | 4.8 | 12.9 | 0.00 | 0.20 | 0.20 | 65 | 1014.5 |
| 20260503192204 | 11 | 270 | 4.8 | 12.9 | 0.00 | 0.20 | 0.20 | 64 | 1014.5 |
| 20260503192005 | 11 | 267 | 4.8 | 12.9 | 0.00 | 0.20 | 0.20 | 65 | 1014.7 |
| 20260503191804 | 11 | 277 | 4.8 | 12.9 | 0.00 | 0.20 | 0.20 | 64 | 1014.7 |
| 20260503191604 | 11 | 277 | 4.8 | 14.5 | 0.00 | 0.20 | 0.20 | 65 | 1014.5 |
| 20260503191404 | 11 | 276 | 4.8 | 14.5 | 0.00 | 0.20 | 0.20 | 65 | 1014.6 |
| 20260503191004 | 11 | 283 | 4.8 | 14.5 | 0.00 | 0.20 | 0.20 | 65 | 1014.6 |
| 20260503190805 | 11 | 278 | 4.8 | 14.5 | 0.00 | 0.20 | 0.20 | 65 | 1014.5 |
| 20260503190404 | 11 | 292 | 4.8 | 12.9 | 0.00 | 0.20 | 0.20 | 65 | 1014.5 |
| 20260503185804 | 11 | 318 | 1.6 | 11.3 | 0.00 | 0.20 | 0.20 | 65 | 1014.5 |
| 20260503185404 | 11 | 316 | 1.6 | 8.0 | 0.00 | 0.20 | 0.20 | 66 | 1014.5 |
| 20260503185204 | 11 | 287 | 1.6 | 8.0 | 0.00 | 0.20 | 0.20 | 66 | 1014.5 |
| 20260503185004 | 11 | 295 | 1.6 | 8.0 | 0.00 | 0.20 | 0.20 | 65 | 1014.5 |
| 20260503184604 | 11 | 299 | 1.6 | 8.0 | 0.00 | 0.20 | 0.20 | 65 | 1014.3 |
| 20260503184404 | 11 | 293 | 1.6 | 8.0 | 0.00 | 0.20 | 0.20 | 65 | 1014.3 |
| 20260503184204 | 11 | 299 | 1.6 | 8.0 | 0.00 | 0.20 | 0.20 | 65 | 1014.4 |
| 20260503184004 | 11 | 270 | 1.6 | 6.4 | 0.00 | 0.20 | 0.20 | 65 | 1014.3 |
| 20260503183804 | 11 | 256 | 1.6 | 6.4 | 0.00 | 0.20 | 0.20 | 64 | 1014.3 |
| 20260503183604 | 11 | 230 | 1.6 | 4.8 | 0.00 | 0.20 | 0.20 | 65 | 1014.3 |
| 20260503183404 | 11 | 222 | 1.6 | 8.0 | 0.00 | 0.20 | 0.20 | 64 | 1014.2 |
| 20260503183204 | 11 | 247 | 1.6 | 8.0 | 0.00 | 0.20 | 0.20 | 64 | 1014.3 |
| 20260503183004 | 11 | 17 | 1.6 | 9.7 | 0.00 | 0.20 | 0.20 | 64 | 1014.3 |
| 20260503182804 | 11 | 341 | 3.2 | 9.7 | 0.00 | 0.20 | 0.20 | 64 | 1014.3 |
| 20260503182604 | 11 | 327 | 3.2 | 9.7 | 0.00 | 0.20 | 0.20 | 64 | 1014.0 |
| 20260503182404 | 11 | 336 | 3.2 | 9.7 | 0.00 | 0.20 | 0.20 | 64 | 1014.2 |
| 20260503182204 | 11 | 353 | 1.6 | 9.7 | 0.00 | 0.20 | 0.20 | 64 | 1014.2 |
| 20260503182005 | 11 | 339 | 1.6 | 8.0 | 0.00 | 0.20 | 0.20 | 65 | 1013.9 |
| 20260503181804 | 11 | 6 | 1.6 | 6.4 | 0.00 | 0.20 | 0.20 | 65 | 1013.8 |
| 20260503181604 | 11 | 25 | 1.6 | 6.4 | 0.00 | 0.20 | 0.20 | 65 | 1013.9 |
| 20260503181404 | 11 | 19 | 1.6 | 9.7 | 0.00 | 0.20 | 0.20 | 65 | 1013.9 |
| 20260503181205 | 11 | 11 | 3.2 | 14.5 | 0.00 | 0.20 | 0.20 | 65 | 1014.0 |
| 20260503181004 | 11 | 30 | 3.2 | 14.5 | 0.00 | 0.20 | 0.20 | 65 | 1013.9 |
| 20260503180604 | 11 | 67 | 4.8 | 14.5 | 0.00 | 0.20 | 0.20 | 65 | 1013.9 |
| 20260503180404 | 11 | 138 | 4.8 | 14.5 | 0.00 | 0.20 | 0.20 | 65 | 1013.8 |
| 20260503180204 | 11 | 196 | 3.2 | 17.7 | 0.00 | 0.20 | 0.20 | 65 | 1013.8 |
| 20260503180004 | 11 | 297 | 4.8 | 17.7 | 0.00 | 0.20 | 0.20 | 65 | 1014.0 |
| 20260503175804 | 11 | 328 | 4.8 | 17.7 | 0.00 | 0.20 | 0.20 | 65 | 1013.8 |
| 20260503175604 | 11 | 331 | 4.8 | 17.7 | 0.00 | 0.20 | 0.20 | 65 | 1013.8 |
| 20260503175405 | 11 | 358 | 4.8 | 17.7 | 0.00 | 0.20 | 0.20 | 65 | 1013.8 |
| 20260503175204 | 11 | 28 | 4.8 | 12.9 | 0.00 | 0.20 | 0.20 | 65 | 1013.8 |
| 20260503175004 | 11 | 21 | 4.8 | 12.9 | 0.00 | 0.20 | 0.20 | 65 | 1013.8 |
| 20260503174804 | 11 | 13 | 4.8 | 14.5 | 0.00 | 0.20 | 0.20 | 65 | 1013.5 |
| 20260503174604 | 11 | 38 | 4.8 | 14.5 | 0.00 | 0.20 | 0.20 | 65 | 1013.7 |
| 20260503174004 | 11 | 356 | 4.8 | 17.7 | 0.00 | 0.20 | 0.20 | 64 | 1013.6 |
| 20260503173804 | 11 | 354 | 4.8 | 17.7 | 0.00 | 0.20 | 0.20 | 64 | 1013.6 |
| 20260503173605 | 11 | 347 | 4.8 | 17.7 | 0.00 | 0.20 | 0.20 | 64 | 1013.4 |
| 20260503173405 | 11 | 10 | 4.8 | 17.7 | 0.00 | 0.20 | 0.20 | 64 | 1013.4 |
| 20260503173204 | 11 | 15 | 4.8 | 14.5 | 0.00 | 0.20 | 0.20 | 64 | 1013.3 |
| 20260503173004 | 11 | 28 | 4.8 | 14.5 | 0.00 | 0.20 | 0.20 | 63 | 1013.5 |
| 20260503172804 | 11 | 52 | 3.2 | 12.9 | 0.00 | 0.20 | 0.20 | 64 | 1013.3 |
| 20260503172605 | 11 | 62 | 3.2 | 12.9 | 0.00 | 0.20 | 0.20 | 63 | 1013.4 |
| 20260503172404 | 11 | 40 | 3.2 | 12.9 | 0.00 | 0.20 | 0.20 | 63 | 1013.3 |
| 20260503172204 | 11 | 39 | 3.2 | 11.3 | 0.00 | 0.20 | 0.20 | 63 | 1013.5 |
| 20260503171804 | 11 | 1 | 3.2 | 14.5 | 0.00 | 0.20 | 0.20 | 64 | 1013.4 |
| 20260503171604 | 11 | 347 | 3.2 | 14.5 | 0.00 | 0.20 | 0.20 | 63 | 1013.4 |
| 20260503171404 | 12 | 6 | 4.8 | 16.1 | 0.00 | 0.20 | 0.20 | 63 | 1013.4 |
| 20260503171205 | 12 | 16 | 4.8 | 17.7 | 0.00 | 0.20 | 0.20 | 62 | 1013.2 |
| 20260503171005 | 12 | 6 | 6.4 | 17.7 | 0.00 | 0.20 | 0.20 | 62 | 1013.2 |
| 20260503170804 | 12 | 12 | 6.4 | 17.7 | 0.00 | 0.20 | 0.20 | 62 | 1013.4 |
| 20260503170604 | 12 | 1 | 8.0 | 17.7 | 0.00 | 0.20 | 0.20 | 63 | 1013.3 |
| 20260503170205 | 12 | 341 | 8.0 | 17.7 | 0.00 | 0.20 | 0.20 | 62 | 1013.2 |
| 20260503160205 | 15 | 14 | 9.7 | 24.1 | 0.00 | 0.20 | 0.20 | 53 | 1012.5 |
| 20260503151005 | 15 | 1 | 11.3 | 33.8 | 0.00 | 0.20 | 0.20 | 50 | 1012.4 |
| 20260503150804 | 15 | 355 | 11.3 | 33.8 | 0.00 | 0.20 | 0.20 | 47 | 1012.6 |
| 20260503150404 | 15 | 1 | 9.7 | 33.8 | 0.00 | 0.20 | 0.20 | 47 | 1012.6 |
| 20260503150204 | 15 | 349 | 9.7 | 33.8 | 0.00 | 0.20 | 0.20 | 47 | 1012.3 |
| 20260503140204 | 13 | 26 | 11.3 | 30.6 | 0.00 | 0.20 | 0.20 | 52 | 1012.5 |
| 20260503131204 | 13 | 351 | 6.4 | 24.1 | 0.00 | 0.20 | 0.20 | 56 | 1012.7 |
| 20260503131004 | 13 | 345 | 6.4 | 20.9 | 0.00 | 0.20 | 0.20 | 56 | 1012.5 |
| 20260503130804 | 13 | 356 | 6.4 | 20.9 | 0.00 | 0.20 | 0.20 | 56 | 1012.6 |
| 20260503130404 | 13 | 308 | 6.4 | 20.9 | 0.00 | 0.20 | 0.20 | 55 | 1012.8 |
| 20260503130204 | 13 | 331 | 6.4 | 20.9 | 0.00 | 0.20 | 0.20 | 56 | 1012.7 |